GW2155 Weather Reports


Display with metric or nautical units.
time (UTC)temp
F
wind
direction
speed
MPH
gust
MPH
rain 1hr
in
rain 24hr
in
rain mn
in
humidity
%
barometer
mb
20240414071909 49 140 0.0 0.0 0.00 0.00 0.00 50 1002.4
20240414071407 49 136 0.0 0.0 0.00 0.00 0.00 52 1002.5
20240414070906 49 130 1.0 1.0 0.00 0.00 0.00 54 1002.6
20240414070404 50 152 0.0 0.0 0.00 0.00 0.00 56 1002.4
20240414065903 50 159 0.0 0.0 0.00 0.00 0.00 57 1002.5
20240414065403 50 144 0.0 1.0 0.00 0.00 0.00 57 1002.8
20240414064902 50 150 0.0 0.0 0.00 0.00 0.00 55 1002.4
20240414064401 50 149 0.0 0.0 0.00 0.00 0.00 55 1002.5
20240414063859 50 130 1.0 2.0 0.00 0.00 0.00 54 1002.6
20240414063358 50 142 0.0 0.0 0.00 0.00 0.00 57 1002.2
20240414062858 50 135 0.0 0.0 0.00 0.00 0.00 54 1002.5
20240414062356 50 120 1.0 1.0 0.00 0.00 0.00 54 1002.2
20240414061856 50 157 0.0 0.0 0.00 0.00 0.00 54 1002.4
20240414061355 50 149 0.0 0.0 0.00 0.00 0.00 53 1002.4
20240414060854 50 141 0.0 0.0 0.00 0.00 0.00 54 1002.4
20240414060353 51 143 0.0 0.0 0.00 0.00 0.00 54 1002.5
20240414055852 51 155 0.0 1.0 0.00 0.00 0.00 53 1002.2
20240414055350 51 150 0.0 0.0 0.00 0.00 0.00 53 1002.4
20240414054848 51 160 0.0 0.0 0.00 0.00 0.00 52 1002.2
20240414054347 52 136 1.0 1.0 0.00 0.00 0.00 52 1002.2
20240414053846 52 155 0.0 1.0 0.00 0.00 0.00 50 1002.2
20240414053345 52 141 0.0 0.0 0.00 0.00 0.00 47 1002.2
20240414052844 53 126 0.0 0.0 0.00 0.00 0.00 47 1001.9
20240414052344 53 161 0.0 1.0 0.00 0.00 0.00 49 1002.0
20240414051844 54 149 0.0 0.0 0.00 0.00 0.00 47 1002.0
20240414051342 55 143 0.0 0.0 0.00 0.00 0.00 43 1002.1
20240414050841 55 154 0.0 1.0 0.00 0.00 0.00 40 1002.1
20240414050339 55 147 0.0 0.0 0.00 0.00 0.00 41 1002.1
20240414045838 55 149 0.0 0.0 0.00 0.00 0.00 42 1002.2
20240414045338 55 149 0.0 0.0 0.00 0.00 0.00 44 1002.1
20240414044836 56 137 0.0 0.0 0.00 0.00 0.00 45 1002.2
20240414044334 57 137 0.0 0.0 0.00 0.00 0.00 43 1002.5
20240414043832 59 139 0.0 0.0 0.00 0.00 0.00 40 1002.0
20240414043332 59 131 0.0 1.0 0.00 0.00 0.00 36 1002.2
20240414042831 60 124 1.0 2.0 0.00 0.00 0.00 35 1002.0
20240414042329 59 114 1.0 1.0 0.00 0.00 0.00 35 1002.0
20240414041830 59 106 1.0 2.0 0.00 0.00 0.00 36 1002.0
20240414041327 59 113 0.0 1.0 0.00 0.00 0.00 37 1002.0
20240414040826 59 118 1.0 2.0 0.00 0.00 0.00 38 1002.4
20240414040326 59 116 1.0 1.0 0.00 0.00 0.00 37 1002.2
20240414035825 59 61 5.0 7.0 0.00 0.00 0.00 38 1002.0
20240414035323 59 131 3.0 4.0 0.00 0.00 0.00 38 1002.1
20240414034821 59 98 2.0 3.0 0.00 0.00 0.00 35 1002.0
20240414034319 59 133 2.0 2.0 0.00 0.00 0.00 36 1001.9
20240414033818 58 120 1.0 1.0 0.00 0.00 0.00 36 1001.9
20240414033316 58 127 2.0 2.0 0.00 0.00 0.00 36 1001.8
20240414032815 59 127 1.0 1.0 0.00 0.00 0.00 36 1002.1
20240414032313 59 134 0.0 0.0 0.00 0.00 0.00 36 1001.9
20240414031811 60 130 2.0 2.0 0.00 0.00 0.00 35 1002.0
20240414031309 61 131 2.0 3.0 0.00 0.00 0.00 34 1001.6
20240414030808 61 141 1.0 1.0 0.00 0.00 0.00 34 1001.7
20240414030306 61 136 0.0 0.0 0.00 0.00 0.00 34 1001.4
20240414025805 61 151 0.0 0.0 0.00 0.00 0.00 34 1001.6
20240414025303 62 144 0.0 1.0 0.00 0.00 0.00 34 1001.4
20240414024802 62 141 2.0 2.0 0.00 0.00 0.00 34 1001.6
20240414024300 62 152 0.0 1.0 0.00 0.00 0.00 33 1001.1
20240414023759 63 148 0.0 0.0 0.00 0.00 0.00 33 1001.2
20240414023259 63 144 0.0 0.0 0.00 0.00 0.00 32 1001.0
20240414022758 64 135 0.0 1.0 0.00 0.00 0.00 32 1001.0
20240414022258 64 152 0.0 1.0 0.00 0.00 0.00 32 1000.9
20240414021757 64 143 0.0 0.0 0.00 0.00 0.00 32 1000.7
20240414021256 64 159 1.0 2.0 0.00 0.00 0.00 31 1000.9
20240414020755 65 141 1.0 1.0 0.00 0.00 0.00 29 1001.1
20240414020254 66 133 1.0 2.0 0.00 0.00 0.00 29 1000.9
20240414015753 66 147 2.0 2.0 0.00 0.00 0.00 27 1000.9
20240414015252 68 166 1.0 2.0 0.00 0.00 0.00 26 1000.5
20240414014751 68 141 3.0 4.0 0.00 0.00 0.00 24 1000.9
20240414014250 68 158 1.0 2.0 0.00 0.00 0.00 24 1000.6
20240414013749 69 156 2.0 2.0 0.00 0.00 0.00 24 1000.5
20240414013248 69 137 2.0 2.0 0.00 0.00 0.00 24 1000.5
20240414012746 70 145 1.0 1.0 0.00 0.00 0.00 23 1000.5
20240414012245 71 156 1.0 2.0 0.00 0.00 0.00 23 1000.5
20240414011743 71 154 2.0 2.0 0.00 0.00 0.00 22 1000.5
20240414011242 72 145 1.0 2.0 0.00 0.00 0.00 22 1000.4
20240414010742 72 156 2.0 2.0 0.00 0.00 0.00 21 1000.5
20240414010242 73 146 2.0 2.0 0.00 0.00 0.00 21 1000.4
20240414005740 73 139 0.0 0.0 0.00 0.00 0.00 21 1000.4
20240414005238 73 145 0.0 1.0 0.00 0.00 0.00 21 1000.4
20240414004737 74 143 0.0 0.0 0.00 0.00 0.00 21 1000.3
20240414004236 74 142 0.0 0.0 0.00 0.00 0.00 21 1000.3
20240414003735 74 133 2.0 2.0 0.00 0.00 0.00 20 1000.3
20240414003234 74 171 2.0 2.0 0.00 0.00 0.00 21 1000.2
20240414002732 74 143 1.0 1.0 0.00 0.00 0.00 20 1000.4
20240414002232 74 128 1.0 1.0 0.00 0.00 0.00 20 1000.4
20240414001731 74 326 3.0 3.0 0.00 0.00 0.00 19 1000.4
20240414001230 74 295 3.0 3.0 0.00 0.00 0.00 20 1000.4
20240414000728 74 217 2.0 2.0 0.00 0.00 0.00 20 1000.6
20240414000227 74 229 4.0 4.0 0.00 0.00 0.00 20 1000.5
20240413235726 74 238 2.0 2.0 0.00 0.00 0.00 20 1000.4
20240413235226 75 252 3.0 4.0 0.00 0.00 0.00 19 1000.4
20240413234725 75 262 5.0 6.0 0.00 0.00 0.00 19 1000.3
20240413234223 75 266 3.0 3.0 0.00 0.00 0.00 19 1000.4
20240413233722 74 183 0.0 1.0 0.00 0.00 0.00 18 1000.4
20240413233221 74 138 0.0 0.0 0.00 0.00 0.00 19 1000.5
20240413232720 74 145 4.0 4.0 0.00 0.00 0.00 18 1000.3
20240413232218 73 143 4.0 4.0 0.00 0.00 0.00 20 1000.4
20240413231718 73 119 4.0 6.0 0.00 0.00 0.00 19 1000.2
20240413231218 73 134 6.0 8.0 0.00 0.00 0.00 19 1000.4
20240413230716 73 142 8.0 9.0 0.00 0.00 0.00 19 1000.2
20240413230213 74 201 5.0 6.0 0.00 0.00 0.00 20 1000.3
20240413225712 74 141 7.0 8.0 0.00 0.00 0.00 20 1000.4
20240413225210 73 145 6.0 7.0 0.00 0.00 0.00 20 1000.4
20240413224708 74 130 7.0 9.0 0.00 0.00 0.00 20 1000.2
20240413224208 76 119 10.0 14.0 0.00 0.00 0.00 18 1000.0
20240413223706 76 143 5.0 7.0 0.00 0.00 0.00 18 999.8
20240413223205 75 177 12.0 13.0 0.00 0.00 0.00 18 1000.0
20240413222705 76 157 8.0 9.0 0.00 0.00 0.00 18 999.9
20240413222203 75 174 2.0 2.0 0.00 0.00 0.00 18 1000.0
20240413221702 75 8 1.0 2.0 0.00 0.00 0.00 17 999.9
20240413221201 75 147 6.0 7.0 0.00 0.00 0.00 17 1000.3
20240413220700 77 111 9.0 13.0 0.00 0.00 0.00 17 1000.3
20240413220200 78 87 3.0 3.0 0.00 0.00 0.00 17 999.9
20240413215657 77 146 7.0 9.0 0.00 0.00 0.00 17 999.9
20240413215154 77 126 4.0 7.0 0.00 0.00 0.00 17 999.9
20240413214653 77 157 8.0 9.0 0.00 0.00 0.00 16 999.8
20240413214151 76 184 5.0 7.0 0.00 0.00 0.00 17 1000.2
20240413213651 77 171 6.0 8.0 0.00 0.00 0.00 17 999.9
20240413213149 77 138 4.0 4.0 0.00 0.00 0.00 17 999.9
20240413212647 77 155 6.0 7.0 0.00 0.00 0.00 17 1000.2
20240413212146 77 169 5.0 7.0 0.00 0.00 0.00 17 999.7
20240413211645 79 153 0.0 1.0 0.00 0.00 0.00 16 1000.2
20240413211144 78 135 0.0 1.0 0.00 0.00 0.00 15 1000.3
20240413210641 79 168 1.0 2.0 0.00 0.00 0.00 15 1000.2
20240413210140 80 168 1.0 1.0 0.00 0.00 0.00 15 1000.0
20240413205639 81 134 1.0 1.0 0.00 0.00 0.00 15 1000.3
20240413205138 81 140 1.0 1.0 0.00 0.00 0.00 15 1000.3
20240413204637 81 132 0.0 0.0 0.00 0.00 0.00 15 1000.3
20240413204135 81 201 1.0 1.0 0.00 0.00 0.00 14 1000.2
20240413203635 79 141 0.0 1.0 0.00 0.00 0.00 15 1000.3
20240413203134 78 340 5.0 6.0 0.00 0.00 0.00 15 1000.3
20240413202634 77 261 7.0 8.0 0.00 0.00 0.00 16 1000.2
20240413202134 78 290 9.0 11.0 0.00 0.00 0.00 16 1000.4
20240413201632 79 298 4.0 6.0 0.00 0.00 0.00 17 1000.2
20240413201132 81 6 2.0 3.0 0.00 0.00 0.00 17 1000.5
20240413200631 80 150 0.0 1.0 0.00 0.00 0.00 17 1000.7
20240413200129 79 138 2.0 2.0 0.00 0.00 0.00 17 1000.4
20240413195628 77 258 3.0 3.0 0.00 0.00 0.00 17 1000.7
20240413195125 77 171 0.0 1.0 0.00 0.00 0.00 18 1000.4
20240413194624 76 147 1.0 1.0 0.00 0.00 0.00 20 1000.5
20240413194124 76 144 1.0 2.0 0.00 0.00 0.00 19 1000.7
20240413193621 76 223 2.0 2.0 0.00 0.00 0.00 18 1000.5
20240413193122 75 158 0.0 1.0 0.00 0.00 0.00 20 1000.5
20240413192620 75 167 1.0 1.0 0.00 0.00 0.00 18 1000.6
20240413192119 75 282 2.0 3.0 0.00 0.00 0.00 20 1000.6
20240413191618 76 291 4.0 6.0 0.00 0.00 0.00 20 1000.6
20240413191116 76 135 0.0 1.0 0.00 0.00 0.00 22 1000.7
20240413190615 75 141 1.0 2.0 0.00 0.00 0.00 21 1000.7
20240413190114 75 134 0.0 1.0 0.00 0.00 0.00 21 1000.7
20240413185613 75 316 3.0 3.0 0.00 0.00 0.00 21 1000.9
20240413185112 75 126 0.0 1.0 0.00 0.00 0.00 22 1001.0
20240413184611 75 123 1.0 1.0 0.00 0.00 0.00 22 1000.9
20240413184110 75 175 2.0 2.0 0.00 0.00 0.00 21 1001.2
20240413183609 75 271 5.0 7.0 0.00 0.00 0.00 23 1000.7
20240413183109 74 114 1.0 2.0 0.00 0.00 0.00 22 1000.9
20240413182607 73 274 4.0 4.0 0.00 0.00 0.00 24 1001.0
20240413182106 72 279 2.0 2.0 0.00 0.00 0.00 24 1000.9
20240413181605 72 270 4.0 4.0 0.00 0.00 0.00 24 1001.0
20240413181103 73 141 0.0 1.0 0.00 0.00 0.00 25 1001.3
20240413180601 73 140 0.0 1.0 0.00 0.00 0.00 24 1001.2
20240413180101 73 150 0.0 1.0 0.00 0.00 0.00 25 1001.2
20240413175559 73 155 1.0 2.0 0.00 0.00 0.00 25 1001.3
20240413175059 72 138 1.0 2.0 0.00 0.00 0.00 25 1001.3
20240413174557 70 177 2.0 3.0 0.00 0.00 0.00 28 1001.2
20240413174056 69 154 2.0 2.0 0.00 0.00 0.00 30 1001.3
20240413173556 69 256 3.0 3.0 0.00 0.00 0.00 30 1001.6
20240413173055 69 185 1.0 1.0 0.00 0.00 0.00 29 1001.6
20240413172554 69 157 0.0 1.0 0.00 0.00 0.00 30 1001.7
20240413172053 68 199 2.0 2.0 0.00 0.00 0.00 30 1001.8
20240413171551 68 122 1.0 2.0 0.00 0.00 0.00 30 1001.6
20240413171050 68 254 2.0 2.0 0.00 0.00 0.00 31 1001.6
20240413170549 68 163 1.0 2.0 0.00 0.00 0.00 32 1001.3
20240413170048 68 153 1.0 2.0 0.00 0.00 0.00 33 1001.3
20240413165548 68 135 0.0 1.0 0.00 0.00 0.00 34 1001.6
20240413165045 67 158 0.0 0.0 0.00 0.00 0.00 33 1001.8
20240413164544 67 133 1.0 2.0 0.00 0.00 0.00 34 1002.0
20240413164043 68 177 2.0 3.0 0.00 0.00 0.00 33 1001.6
20240413163542 67 167 2.0 2.0 0.00 0.00 0.00 32 1001.3
20240413163042 67 164 1.0 1.0 0.00 0.00 0.00 32 1001.6
20240413162542 67 146 3.0 3.0 0.00 0.00 0.00 32 1001.2
20240413162041 67 157 1.0 1.0 0.00 0.00 0.00 31 1001.6
20240413161540 67 151 0.0 0.0 0.00 0.00 0.00 36 1001.3
20240413161039 66 212 2.0 3.0 0.00 0.00 0.00 35 1001.6
20240413160539 66 174 1.0 1.0 0.00 0.00 0.00 39 1001.7
20240413160037 66 156 0.0 1.0 0.00 0.00 0.00 38 1001.3
20240413155536 66 157 0.0 1.0 0.00 0.00 0.00 37 1001.3
20240413155035 67 175 2.0 2.0 0.00 0.00 0.00 35 1001.3
20240413154534 66 141 0.0 0.0 0.00 0.00 0.00 34 1001.1
20240413154032 66 148 0.0 0.0 0.00 0.00 0.00 34 1001.2
20240413153532 65 145 0.0 0.0 0.00 0.00 0.00 35 1001.6
20240413153030 63 162 0.0 0.0 0.00 0.00 0.00 36 1001.2
20240413152529 62 203 2.0 2.0 0.00 0.00 0.00 37 1001.4
20240413152028 64 231 1.0 2.0 0.00 0.00 0.00 40 1001.4
20240413151528 63 165 0.0 1.0 0.00 0.00 0.00 33 1001.3
20240413151028 61 156 0.0 0.0 0.00 0.00 0.00 40 1001.3
20240413150527 59 153 0.0 0.0 0.00 0.00 0.00 45 1001.4
20240413150026 57 153 0.0 1.0 0.00 0.00 0.00 47 1001.3
20240413145525 57 178 1.0 1.0 0.00 0.00 0.00 45 1001.4
20240413145024 55 135 0.0 0.0 0.00 0.00 0.00 44 1001.3
20240413144524 55 159 0.0 0.0 0.00 0.00 0.00 46 1001.7
20240413144022 54 150 0.0 1.0 0.00 0.00 0.00 47 1001.6
20240413143520 53 175 0.0 1.0 0.00 0.00 0.00 49 1001.6
20240413143019 52 152 1.0 1.0 0.00 0.00 0.00 51 1001.4
20240413142518 51 138 3.0 4.0 0.00 0.00 0.00 54 1001.4
20240413142016 51 160 2.0 2.0 0.00 0.00 0.00 55 1001.4
20240413141512 51 153 1.0 2.0 0.00 0.00 0.00 55 1001.4
20240413141012 52 153 0.0 1.0 0.00 0.00 0.00 57 1001.3
20240413140511 52 176 1.0 1.0 0.00 0.00 0.00 55 1001.3
20240413140009 51 153 0.0 0.0 0.00 0.00 0.00 54 1001.1
20240413135508 50 161 1.0 1.0 0.00 0.00 0.00 55 1001.6
20240413135006 49 134 0.0 0.0 0.00 0.00 0.00 54 1001.3
20240413134505 48 132 0.0 0.0 0.00 0.00 0.00 55 1001.2
20240413134004 48 138 0.0 0.0 0.00 0.00 0.00 57 1001.2
20240413133503 48 150 0.0 0.0 0.00 0.00 0.00 58 1001.0
20240413133004 47 132 0.0 0.0 0.00 0.00 0.00 58 1001.3
20240413132503 46 134 0.0 0.0 0.00 0.00 0.00 61 1001.1
20240413132001 46 140 0.0 0.0 0.00 0.00 0.00 63 1001.2
20240413131500 46 146 0.0 0.0 0.00 0.00 0.00 65 1001.2
20240413130959 46 134 0.0 0.0 0.00 0.00 0.00 65 1001.2
20240413130458 46 137 0.0 0.0 0.00 0.00 0.00 64 1001.0
20240413125957 46 132 0.0 0.0 0.00 0.00 0.00 63 1001.2
20240413125456 46 144 0.0 0.0 0.00 0.00 0.00 60 1001.2
20240413124955 46 143 0.0 0.0 0.00 0.00 0.00 62 1001.0
20240413124454 46 154 0.0 0.0 0.00 0.00 0.00 66 1001.0
20240413123953 46 144 0.0 1.0 0.00 0.00 0.00 65 1001.2
20240413123453 47 149 0.0 1.0 0.00 0.00 0.00 62 1001.2
20240413122952 47 156 0.0 0.0 0.00 0.00 0.00 58 1001.2
20240413122451 47 145 0.0 0.0 0.00 0.00 0.00 54 1000.7
20240413121951 47 137 0.0 0.0 0.00 0.00 0.00 52 1000.9
20240413121449 47 119 1.0 2.0 0.00 0.00 0.00 53 1001.0
20240413120947 47 146 0.0 0.0 0.00 0.00 0.00 56 1001.1
20240413120445 47 148 0.0 1.0 0.00 0.00 0.00 58 1001.0
20240413115946 47 140 0.0 0.0 0.00 0.00 0.00 58 1001.0
20240413115444 47 118 1.0 1.0 0.00 0.00 0.00 59 1000.9
20240413114943 46 132 0.0 0.0 0.00 0.00 0.00 62 1000.9
20240413114439 46 123 1.0 2.0 0.00 0.00 0.00 59 1000.7
20240413113938 46 126 1.0 1.0 0.00 0.00 0.00 57 1000.6
20240413113436 46 121 1.0 1.0 0.00 0.00 0.00 59 1000.7
20240413112935 46 139 0.0 0.0 0.00 0.00 0.00 62 1000.5
20240413112434 46 170 1.0 1.0 0.00 0.00 0.00 68 1000.5
20240413111934 46 152 0.0 1.0 0.00 0.00 0.00 72 1000.7
20240413111434 46 148 0.0 0.0 0.00 0.00 0.00 72 1000.5
20240413110934 47 140 0.0 0.0 0.00 0.00 0.00 68 1000.4
20240413110433 47 164 1.0 1.0 0.00 0.00 0.00 60 1000.5
20240413105932 46 160 0.0 1.0 0.00 0.00 0.00 60 1000.5
20240413105431 46 137 0.0 0.0 0.00 0.00 0.00 60 1000.7
20240413104930 46 144 0.0 0.0 0.00 0.00 0.00 63 1000.4
20240413104429 46 145 0.0 0.0 0.00 0.00 0.00 63 1000.3
20240413103928 46 139 0.0 0.0 0.00 0.00 0.00 64 1000.9
20240413103426 46 135 0.0 1.0 0.00 0.00 0.00 65 1000.7
20240413102925 46 140 0.0 1.0 0.00 0.00 0.00 65 1000.4
20240413102424 46 118 2.0 2.0 0.00 0.00 0.00 67 1000.7
20240413101922 46 138 1.0 1.0 0.00 0.00 0.00 67 1001.0
20240413101421 46 138 0.0 0.0 0.00 0.00 0.00 66 1000.7
20240413100921 47 138 0.0 0.0 0.00 0.00 0.00 67 1000.7
20240413100420 48 236 2.0 2.0 0.00 0.00 0.00 61 1001.0
20240413095919 48 138 0.0 0.0 0.00 0.00 0.00 57 1000.9
20240413095418 48 150 0.0 1.0 0.00 0.00 0.00 53 1001.0
20240413094917 47 130 1.0 1.0 0.00 0.00 0.00 55 1000.7
20240413094417 47 126 1.0 2.0 0.00 0.00 0.00 59 1000.5
20240413093917 47 142 0.0 0.0 0.00 0.00 0.00 61 1001.0
20240413093415 47 121 0.0 1.0 0.00 0.00 0.00 63 1001.0
20240413092915 48 140 0.0 0.0 0.00 0.00 0.00 62 1001.0
20240413092413 48 155 0.0 1.0 0.00 0.00 0.00 60 1001.0
20240413091913 48 126 0.0 1.0 0.00 0.00 0.00 60 1000.9
20240413091412 48 126 3.0 4.0 0.00 0.00 0.00 66 1001.1
20240413090911 50 312 2.0 2.0 0.00 0.00 0.00 59 1000.4
20240413090410 50 118 1.0 2.0 0.00 0.00 0.00 41 1000.2
20240413085910 50 149 2.0 2.0 0.00 0.00 0.00 42 1000.3
20240413085408 48 137 2.0 3.0 0.00 0.00 0.00 49 999.8
20240413084907 48 148 1.0 1.0 0.00 0.00 0.00 53 1000.0
20240413084407 48 149 0.0 0.0 0.00 0.00 0.00 50 1000.6
20240413083906 49 135 0.0 0.0 0.00 0.00 0.00 50 1000.6
20240413083405 48 128 1.0 1.0 0.00 0.00 0.00 50 1000.5
20240413082903 48 135 1.0 1.0 0.00 0.00 0.00 51 1000.5
20240413082402 49 144 0.0 0.0 0.00 0.00 0.00 54 1000.5
20240413081902 49 155 0.0 1.0 0.00 0.00 0.00 52 1000.6
20240413081401 49 126 0.0 1.0 0.00 0.00 0.00 53 1000.6
20240413080859 49 141 0.0 0.0 0.00 0.00 0.00 55 1000.7
20240413080357 49 137 0.0 0.0 0.00 0.00 0.00 59 1000.7
20240413075856 51 139 0.0 0.0 0.00 0.00 0.00 58 1001.0
20240413075355 52 150 0.0 0.0 0.00 0.00 0.00 48 1001.0
20240413074854 52 150 0.0 0.0 0.00 0.00 0.00 41 1000.4
20240413074354 51 147 0.0 0.0 0.00 0.00 0.00 42 1000.5
20240413073853 50 126 0.0 1.0 0.00 0.00 0.00 46 1000.6
20240413073351 51 108 1.0 1.0 0.00 0.00 0.00 51 1000.7
20240413072849 52 137 0.0 0.0 0.00 0.00 0.00 44 1000.7
20240413072349 52 131 1.0 1.0 0.00 0.00 0.00 42 1000.6